Kaisei Maru — JD3114 — position and weather

sailwx.info

Track history (hours):
 
Tides and Currents Weather Stations Pressure Air Temp Water Temp Dewpoint Dewpoint Depression Visibility Wind Speed Wind Dir Waves Ship Positions

Kaisei Maru

Last reported at 2019-Feb-19 12:54 UTC. Time now 2019-Feb-21 15:46 UTC.
Position N 33°52' E 135°03'.

Length 52 m; draft 4 m.

Type: Tanker. MMSI: 431001837.

Date/timePositionNaut miles runAvg speedWind from/ knotsBaromVisibWave heightAir tempDewpointWater temp
2019-Feb-19 12:54N 33°52' E 135°03'4 9.4
2019-Feb-19 12:29N 33°56' E 135°01'5 9.3
2019-Feb-19 12:00N 34°01' E 135°01'5 9.5
2019-Feb-19 11:30N 34°05' E 135°01'5 9.6
2019-Feb-19 11:00N 34°10' E 135°02'5 9.7
2019-Feb-19 10:30N 34°15' E 135°03'5 9.4
2019-Feb-19 10:00N 34°19' E 135°05'510.2
2019-Feb-19 09:30N 34°22' E 135°10'610.0
2019-Feb-19 08:54N 34°25' E 135°16'2 5.7
2019-Feb-19 08:30N 34°26' E 135°19'0 0.0
2019-Feb-19 07:18N 34°26' E 135°19'0 0.0
2019-Feb-19 04:24N 34°26' E 135°19'1 0.2
2019-Feb-19 01:06N 34°26' E 135°19'0 0.0
2019-Feb-19 00:54N 34°26' E 135°19'0 0.0
2019-Feb-19 00:25N 34°26' E 135°19'0 0.0
2019-Feb-18 23:19N 34°26' E 135°19'1 3.1
2019-Feb-18 22:51N 34°27' E 135°19'410.9
2019-Feb-18 22:30N 34°31' E 135°17'610.9
2019-Feb-18 21:59N 34°36' E 135°16'5 9.8
2019-Feb-18 21:30N 34°41' E 135°14'1 2.8
2019-Feb-18 21:00N 34°41' E 135°12'0 0.0
2019-Feb-18 20:30N 34°41' E 135°12'0 0.0
2019-Feb-18 20:00N 34°41' E 135°12'0 0.0
2019-Feb-18 19:30N 34°41' E 135°12'0 0.0
2019-Feb-18 19:00N 34°41' E 135°12'0 0.0
2019-Feb-18 18:30N 34°41' E 135°12'0 0.0
2019-Feb-18 18:00N 34°41' E 135°12'0 0.0
2019-Feb-18 17:30N 34°41' E 135°12'0 0.0
2019-Feb-18 17:00N 34°41' E 135°12'0 0.0
2019-Feb-18 16:30N 34°41' E 135°12'0 0.0
2019-Feb-18 16:00N 34°41' E 135°12'0 0.0
2019-Feb-18 15:30N 34°41' E 135°12'0 0.0
2019-Feb-18 15:00N 34°41' E 135°12'0 0.0
2019-Feb-18 14:30N 34°41' E 135°12'0 0.0
2019-Feb-18 14:00N 34°41' E 135°12'0 0.0
2019-Feb-18 13:30N 34°41' E 135°12'0 0.0
2019-Feb-18 13:00N 34°41' E 135°12'0 0.0
2019-Feb-18 12:30N 34°41' E 135°12'0 0.0
2019-Feb-18 12:00N 34°41' E 135°12'0 0.0
2019-Feb-18 11:30N 34°41' E 135°12'0 0.0
2019-Feb-18 11:00N 34°41' E 135°12'0 0.0
2019-Feb-18 10:30N 34°41' E 135°12'0 0.0
2019-Feb-18 10:00N 34°41' E 135°12'0 0.0
2019-Feb-18 09:30N 34°41' E 135°12'0 0.0
2019-Feb-18 09:00N 34°41' E 135°12'0 0.0
2019-Feb-18 08:30N 34°41' E 135°12'0 0.0
2019-Feb-18 08:00N 34°41' E 135°12'0 0.0
2019-Feb-18 07:30N 34°41' E 135°12'0 0.0
2019-Feb-18 07:00N 34°41' E 135°12'0 0.0
2019-Feb-18 06:30N 34°41' E 135°12'0 0.0
2019-Feb-18 06:00N 34°41' E 135°12'0 0.0
2019-Feb-18 05:30N 34°41' E 135°12'0 0.0
2019-Feb-18 05:00N 34°41' E 135°12'0 0.0
2019-Feb-18 04:30N 34°41' E 135°12'0 0.0
2019-Feb-18 04:00N 34°41' E 135°12'0 0.0
2019-Feb-18 03:30N 34°41' E 135°12'0 0.0
2019-Feb-18 03:00N 34°41' E 135°12'0 0.0
2019-Feb-18 02:30N 34°41' E 135°12'0 0.0
2019-Feb-18 02:00N 34°41' E 135°12'0 0.0
2019-Feb-18 01:30N 34°41' E 135°12'0 0.0
2019-Feb-18 01:00N 34°41' E 135°12'0 0.0
2019-Feb-18 00:30N 34°41' E 135°12'0 0.0
2019-Feb-18 00:00N 34°41' E 135°12'0 0.0
2019-Feb-17 23:30N 34°41' E 135°12'0 0.0
2019-Feb-17 23:00N 34°41' E 135°12'0 0.0
2019-Feb-17 22:30N 34°41' E 135°12'0 0.0
2019-Feb-17 22:00N 34°41' E 135°12'0 0.0
2019-Feb-17 21:30N 34°41' E 135°12'0 0.0
2019-Feb-17 21:00N 34°41' E 135°12'0 0.0
2019-Feb-17 20:30N 34°41' E 135°12'0 0.0
2019-Feb-17 20:00N 34°41' E 135°12'0 0.0
2019-Feb-17 19:30N 34°41' E 135°12'0 0.0
2019-Feb-17 19:00N 34°41' E 135°12'0 0.0
2019-Feb-17 18:30N 34°41' E 135°12'0 0.0
2019-Feb-17 18:00N 34°41' E 135°12'0 0.0
2019-Feb-17 17:30N 34°41' E 135°12'0 0.0
2019-Feb-17 17:00N 34°41' E 135°12'0 0.0
2019-Feb-17 16:30N 34°41' E 135°12'0 0.0
2019-Feb-17 16:00N 34°41' E 135°12'0 0.0
2019-Feb-17 15:30N 34°41' E 135°12'0 0.0
2019-Feb-17 15:00N 34°41' E 135°12'0 0.0
2019-Feb-17 14:30N 34°41' E 135°12'0 0.0
2019-Feb-17 14:00N 34°41' E 135°12'0 0.0
2019-Feb-17 13:30N 34°41' E 135°12'0 0.0
2019-Feb-17 13:00N 34°41' E 135°12'0 0.0
2019-Feb-17 12:30N 34°41' E 135°12'0 0.0
2019-Feb-17 12:00N 34°41' E 135°12'0 0.0
2019-Feb-17 11:30N 34°41' E 135°12'0 0.0
2019-Feb-17 11:00N 34°41' E 135°12'0 0.0
2019-Feb-17 10:30N 34°41' E 135°12'0 0.0
2019-Feb-17 10:00N 34°41' E 135°12'0 0.0
2019-Feb-17 09:30N 34°41' E 135°12'0 0.0
2019-Feb-17 09:00N 34°41' E 135°12'0 0.0
2019-Feb-17 08:30N 34°41' E 135°12'0 0.0
2019-Feb-17 08:00N 34°41' E 135°12'0 0.0
2019-Feb-17 07:30N 34°41' E 135°12'0 0.0
2019-Feb-17 07:00N 34°41' E 135°12'0 0.0
2019-Feb-17 06:30N 34°41' E 135°12'0 0.0
2019-Feb-17 06:00N 34°41' E 135°12'0 0.0
2019-Feb-17 05:30N 34°41' E 135°12'0 0.0
2019-Feb-17 05:00N 34°41' E 135°12'0 0.0
2019-Feb-17 04:30N 34°41' E 135°12'0 0.0
2019-Feb-17 04:00N 34°41' E 135°12'0 0.0
2019-Feb-17 03:30N 34°41' E 135°12'0 0.0
2019-Feb-17 03:00N 34°41' E 135°12'0 0.0
2019-Feb-17 02:30N 34°41' E 135°12'0 0.0
2019-Feb-17 02:00N 34°41' E 135°12'0 0.0
2019-Feb-17 01:30N 34°41' E 135°12'0 0.0
2019-Feb-17 01:00N 34°41' E 135°12'0 0.0
2019-Feb-17 00:30N 34°41' E 135°12'0 0.0
2019-Feb-17 00:00N 34°41' E 135°12'0 0.0
2019-Feb-16 23:30N 34°41' E 135°12'0 0.0
2019-Feb-16 23:00N 34°41' E 135°12'0 0.0
2019-Feb-16 22:30N 34°41' E 135°12'0 0.0
2019-Feb-16 22:00N 34°41' E 135°12'0 0.0
2019-Feb-16 21:30N 34°41' E 135°12'0 0.0
2019-Feb-16 21:00N 34°41' E 135°12'0 0.0
2019-Feb-16 20:30N 34°41' E 135°12'0 0.0
2019-Feb-16 20:00N 34°41' E 135°12'0 0.0
2019-Feb-16 19:30N 34°41' E 135°12'0 0.0
2019-Feb-16 19:00N 34°41' E 135°12'0 0.0
2019-Feb-16 18:30N 34°41' E 135°12'0 0.0
2019-Feb-16 18:00N 34°41' E 135°12'0 0.0
2019-Feb-16 17:30N 34°41' E 135°12'0 0.0
2019-Feb-16 17:00N 34°41' E 135°12'0 0.0
2019-Feb-16 16:30N 34°41' E 135°12'0 0.0
2019-Feb-16 16:00N 34°41' E 135°12'0 0.0
2019-Feb-16 15:30N 34°41' E 135°12'0 0.0
2019-Feb-16 15:00N 34°41' E 135°12'0 0.0
2019-Feb-16 14:30N 34°41' E 135°12'0 0.0
2019-Feb-16 14:00N 34°41' E 135°12'0 0.0
2019-Feb-16 13:30N 34°41' E 135°12'0 0.0
2019-Feb-16 13:00N 34°41' E 135°12'0 0.0
2019-Feb-16 12:30N 34°41' E 135°12'0 0.0
2019-Feb-16 12:00N 34°41' E 135°12'0 0.0
2019-Feb-16 11:30N 34°41' E 135°12'0 0.0
2019-Feb-16 11:00N 34°41' E 135°12'0 0.0
2019-Feb-16 10:30N 34°41' E 135°12'0 0.0
2019-Feb-16 10:00N 34°41' E 135°12'0 0.0
2019-Feb-16 09:30N 34°41' E 135°12'0 0.0
2019-Feb-16 09:00N 34°41' E 135°12'0 0.0
2019-Feb-16 08:30N 34°41' E 135°12'0 0.0
2019-Feb-16 08:00N 34°41' E 135°12'0 0.0
2019-Feb-16 07:30N 34°41' E 135°12'0 0.0
2019-Feb-16 07:00N 34°41' E 135°12'0 0.0
2019-Feb-16 06:30N 34°41' E 135°12'0 0.0
2019-Feb-16 06:00N 34°41' E 135°12'0 0.0
2019-Feb-16 05:30N 34°41' E 135°12'0 0.0
2019-Feb-16 05:00N 34°41' E 135°12'0 0.0
2019-Feb-16 04:30N 34°41' E 135°12'0 0.0
2019-Feb-16 04:00N 34°41' E 135°12'0 0.0
2019-Feb-16 03:30N 34°41' E 135°12'0 0.0
2019-Feb-16 03:00N 34°41' E 135°12'0 0.0
2019-Feb-16 02:30N 34°41' E 135°12'0 0.0
2019-Feb-16 02:00N 34°41' E 135°12'0 0.0
2019-Feb-16 01:30N 34°41' E 135°12'0 0.0
2019-Feb-16 01:00N 34°41' E 135°12'0 0.0
2019-Feb-16 00:30N 34°41' E 135°12'0 0.0
2019-Feb-16 00:00N 34°41' E 135°12'0 0.0
2019-Feb-15 23:29N 34°41' E 135°12'0 0.0
2019-Feb-15 23:00N 34°41' E 135°12'0 0.0
2019-Feb-15 22:30N 34°41' E 135°12'0 0.0
2019-Feb-15 22:00N 34°41' E 135°12'0 0.0
2019-Feb-15 21:30N 34°41' E 135°12'0 0.0
2019-Feb-15 21:00N 34°41' E 135°12'0 0.0
2019-Feb-15 20:30N 34°41' E 135°12'0 0.0
2019-Feb-15 20:00N 34°41' E 135°12'0 0.0
2019-Feb-15 19:30N 34°41' E 135°12'0 0.0
2019-Feb-15 19:00N 34°41' E 135°12'0 0.0
2019-Feb-15 18:30N 34°41' E 135°12'0 0.0
2019-Feb-15 18:00N 34°41' E 135°12'0 0.0
2019-Feb-15 17:30N 34°41' E 135°12'0 0.0
2019-Feb-15 17:00N 34°41' E 135°12'0 0.0
2019-Feb-15 16:30N 34°41' E 135°12'0 0.0
2019-Feb-15 16:00N 34°41' E 135°12'0 0.0
2019-Feb-15 15:30N 34°41' E 135°12'0 0.0
2019-Feb-15 15:00N 34°41' E 135°12'0 0.0
2019-Feb-15 14:30N 34°41' E 135°12'0 0.0
2019-Feb-15 14:00N 34°41' E 135°12'0 0.0
2019-Feb-15 13:30N 34°41' E 135°12'0 0.0
2019-Feb-15 13:00N 34°41' E 135°12'0 0.0
2019-Feb-15 12:30N 34°41' E 135°12'0 0.0
2019-Feb-15 12:00N 34°41' E 135°12'0 0.0
2019-Feb-15 11:30N 34°41' E 135°12'0 0.0
2019-Feb-15 11:00N 34°41' E 135°12'0 0.8
2019-Feb-15 10:30N 34°41' E 135°13'0 0.3
2019-Feb-15 10:00N 34°41' E 135°13'0 0.1
2019-Feb-15 09:30N 34°41' E 135°13'0 0.0
2019-Feb-15 09:00N 34°41' E 135°13'0 0.0
2019-Feb-15 08:30N 34°41' E 135°13'0 0.1
2019-Feb-15 08:00N 34°41' E 135°13'1 1.6
2019-Feb-15 07:30N 34°41' E 135°14'4 7.7
2019-Feb-15 07:00N 34°42' E 135°18'0 0.0
2019-Feb-15 06:30N 34°42' E 135°18'0 0.0
2019-Feb-15 06:00N 34°42' E 135°18'0 0.0
2019-Feb-15 05:30N 34°42' E 135°18'0 0.0
2019-Feb-15 04:59N 34°42' E 135°18'0 0.0
2019-Feb-15 04:30N 34°42' E 135°18'0 0.0
2019-Feb-15 04:00N 34°42' E 135°18'0 0.0
2019-Feb-15 03:30N 34°42' E 135°18'0 0.0
2019-Feb-15 03:00N 34°42' E 135°18'1 1.9
2019-Feb-15 02:29N 34°41' E 135°19'0 0.0
2019-Feb-15 02:00N 34°41' E 135°19'0 0.0
2019-Feb-15 01:30N 34°41' E 135°19'0 0.0
2019-Feb-15 01:00N 34°41' E 135°19'0 0.0
2019-Feb-15 00:30N 34°41' E 135°19'0 0.0
2019-Feb-15 00:00N 34°41' E 135°19'0 0.0
2019-Feb-14 23:30N 34°41' E 135°19'0 0.0
2019-Feb-14 23:00N 34°41' E 135°19'0 0.0
2019-Feb-14 22:30N 34°41' E 135°19'0 0.0
2019-Feb-14 22:00N 34°41' E 135°19'0 0.0
2019-Feb-14 21:30N 34°41' E 135°19'0 0.0
2019-Feb-14 21:00N 34°41' E 135°19'0 0.0
2019-Feb-14 20:30N 34°41' E 135°19'0 0.0
2019-Feb-14 20:00N 34°41' E 135°19'0 0.0
2019-Feb-14 19:30N 34°41' E 135°19'0 0.0
2019-Feb-14 19:00N 34°41' E 135°19'0 0.0
2019-Feb-14 18:30N 34°41' E 135°19'0 0.0
2019-Feb-14 18:00N 34°41' E 135°19'0 0.0
2019-Feb-14 17:30N 34°41' E 135°19'0 0.1
2019-Feb-14 17:00N 34°41' E 135°19'0 0.0
2019-Feb-14 16:30N 34°41' E 135°19'0 0.0
2019-Feb-14 16:00N 34°41' E 135°19'0 0.0
2019-Feb-14 15:30N 34°41' E 135°19'0 0.0
2019-Feb-14 15:00N 34°41' E 135°19'2 3.6
2019-Feb-14 14:30N 34°40' E 135°18'0 0.3
2019-Feb-14 13:59N 34°40' E 135°18'0 0.0
2019-Feb-14 13:30N 34°40' E 135°18'0 0.0
2019-Feb-14 13:00N 34°40' E 135°18'0 0.1
2019-Feb-14 12:30N 34°40' E 135°18'0 0.0
2019-Feb-14 12:00N 34°40' E 135°18'1 2.1
2019-Feb-14 11:30N 34°39' E 135°18'0 0.9
2019-Feb-14 11:00N 34°38' E 135°17'0 0.5
2019-Feb-14 10:30N 34°39' E 135°17'4 7.6
2019-Feb-14 10:00N 34°41' E 135°13'1 1.9
2019-Feb-14 09:30N 34°41' E 135°12'0 0.0
2019-Feb-14 09:00N 34°41' E 135°12'0 0.0
2019-Feb-14 08:30N 34°41' E 135°12'0 0.0
2019-Feb-14 08:00N 34°41' E 135°12'0 0.0
2019-Feb-14 07:30N 34°41' E 135°12'0 0.0
2019-Feb-14 07:00N 34°41' E 135°12'0 0.0
2019-Feb-14 06:30N 34°41' E 135°12'0 0.0
2019-Feb-14 06:00N 34°41' E 135°12'0 0.0
2019-Feb-14 05:30N 34°41' E 135°12'0 0.0
2019-Feb-14 05:00N 34°41' E 135°12'0 0.0
2019-Feb-14 04:30N 34°41' E 135°12'0 0.0
2019-Feb-14 03:59N 34°41' E 135°12'0 0.0
2019-Feb-14 03:00N 34°41' E 135°12'0 0.0
2019-Feb-14 02:30N 34°41' E 135°12'0 0.0
2019-Feb-14 02:00N 34°41' E 135°12'0 0.0
2019-Feb-14 01:29N 34°41' E 135°12'0 0.0
2019-Feb-14 01:00N 34°41' E 135°12'0 0.0
2019-Feb-14 00:30N 34°41' E 135°12'0 0.0
2019-Feb-14 00:00N 34°41' E 135°12'0 0.0
2019-Feb-13 23:30N 34°41' E 135°12'0 0.0
2019-Feb-13 23:00N 34°41' E 135°12'0 0.0
2019-Feb-13 22:30N 34°41' E 135°12'0 0.0
2019-Feb-13 22:00N 34°41' E 135°12'0 0.0
2019-Feb-13 21:30N 34°41' E 135°12'0 0.0
2019-Feb-13 21:00N 34°41' E 135°12'0 0.0
2019-Feb-13 20:30N 34°41' E 135°12'0 0.0
2019-Feb-13 20:00N 34°41' E 135°12'0 0.0
2019-Feb-13 19:29N 34°41' E 135°12'0 0.0
2019-Feb-13 19:00N 34°41' E 135°12'0 0.0
2019-Feb-13 18:30N 34°41' E 135°12'0 0.0
2019-Feb-13 18:00N 34°41' E 135°12'0 0.0
2019-Feb-13 17:30N 34°41' E 135°12'0 0.0
2019-Feb-13 17:00N 34°41' E 135°12'0 0.0
2019-Feb-13 16:30N 34°41' E 135°12'0 0.0
2019-Feb-13 16:00N 34°41' E 135°12'0 0.0
2019-Feb-13 15:30N 34°41' E 135°12'0 0.0
2019-Feb-13 15:00N 34°41' E 135°12'0 0.0
2019-Feb-13 14:30N 34°41' E 135°12'0 0.0
2019-Feb-13 14:00N 34°41' E 135°12'0 0.0
2019-Feb-13 13:30N 34°41' E 135°12'0 0.0
2019-Feb-13 13:00N 34°41' E 135°12'0 0.0
2019-Feb-13 12:30N 34°41' E 135°12'0 0.0
2019-Feb-13 12:00N 34°41' E 135°12'0 0.0
2019-Feb-13 11:30N 34°41' E 135°12'0 0.0
2019-Feb-13 11:00N 34°41' E 135°12'0 0.0
2019-Feb-13 10:30N 34°41' E 135°12'0 0.0
2019-Feb-13 10:00N 34°41' E 135°12'0 0.0
2019-Feb-13 09:30N 34°41' E 135°12'0 0.0
2019-Feb-13 09:00N 34°41' E 135°12'0 0.0
2019-Feb-13 08:30N 34°41' E 135°12'0 0.0
2019-Feb-13 08:00N 34°41' E 135°12'0 0.0
2019-Feb-13 07:30N 34°41' E 135°12'0 0.0
2019-Feb-13 07:00N 34°41' E 135°12'0 0.0
2019-Feb-13 06:30N 34°41' E 135°12'0 0.0
2019-Feb-13 06:00N 34°41' E 135°12'0 0.0
2019-Feb-13 05:30N 34°41' E 135°12'0 0.0
2019-Feb-13 05:00N 34°41' E 135°12'0 0.0
2019-Feb-13 04:30N 34°41' E 135°12'0 0.0
2019-Feb-13 04:00N 34°41' E 135°12'0 0.0
2019-Feb-13 03:30N 34°41' E 135°12'0 0.0
2019-Feb-13 03:00N 34°41' E 135°12'0 0.0
2019-Feb-13 02:30N 34°41' E 135°12'0 0.0
2019-Feb-13 02:00N 34°41' E 135°12'0 0.0
2019-Feb-13 01:30N 34°41' E 135°12'0 0.0
2019-Feb-13 01:00N 34°41' E 135°12'0 0.0
2019-Feb-13 00:30N 34°41' E 135°12'0 0.0
2019-Feb-13 00:00N 34°41' E 135°12'0 0.0
2019-Feb-12 23:30N 34°41' E 135°12'0 0.0
2019-Feb-12 23:00N 34°41' E 135°12'0 0.0
2019-Feb-12 22:30N 34°41' E 135°12'0 0.0
2019-Feb-12 22:00N 34°41' E 135°12'2 3.5
2019-Feb-12 21:30N 34°41' E 135°14'4 7.2
2019-Feb-12 21:00N 34°41' E 135°19'0 0.1
2019-Feb-12 20:30N 34°41' E 135°19'0 0.0
2019-Feb-12 19:59N 34°41' E 135°19'0 0.0
2019-Feb-12 19:30N 34°41' E 135°19'0 0.0
2019-Feb-12 19:00N 34°41' E 135°19'0 0.0
2019-Feb-12 18:30N 34°41' E 135°19'0 0.0
2019-Feb-12 18:00N 34°41' E 135°19'0 0.0
2019-Feb-12 17:30N 34°41' E 135°19'0 0.0
2019-Feb-12 17:00N 34°41' E 135°19'0 0.0
2019-Feb-12 16:30N 34°41' E 135°19'0 0.0
2019-Feb-12 16:00N 34°41' E 135°19'0 0.0
2019-Feb-12 15:30N 34°41' E 135°19'0 0.0
2019-Feb-12 15:00N 34°41' E 135°19'0 0.0
2019-Feb-12 14:30N 34°41' E 135°19'0 0.0
2019-Feb-12 14:00N 34°41' E 135°19'2 4.4
2019-Feb-12 13:30N 34°39' E 135°18'0 0.0
2019-Feb-12 13:00N 34°39' E 135°18'0 0.8
2019-Feb-12 12:30N 34°39' E 135°18'1 1.6
2019-Feb-12 12:00N 34°38' E 135°17'0 0.6
2019-Feb-12 11:30N 34°39' E 135°17'4 7.3
2019-Feb-12 11:00N 34°41' E 135°13'1 1.9
2019-Feb-12 10:30N 34°41' E 135°12'0 0.0
2019-Feb-12 10:00N 34°41' E 135°12'0 0.0
2019-Feb-12 09:30N 34°41' E 135°12'0 0.0
2019-Feb-12 09:00N 34°41' E 135°12'0 0.0
2019-Feb-12 08:30N 34°41' E 135°12'0 0.0
2019-Feb-12 08:00N 34°41' E 135°12'3 5.4
2019-Feb-12 07:30N 34°42' E 135°15'1 2.3
2019-Feb-12 07:00N 34°42' E 135°17'0 0.0
2019-Feb-12 06:30N 34°42' E 135°17'0 0.0
2019-Feb-12 06:00N 34°42' E 135°17'0 0.0
2019-Feb-12 05:30N 34°42' E 135°17'0 0.0
2019-Feb-12 05:00N 34°42' E 135°17'0 0.0
2019-Feb-12 04:30N 34°42' E 135°17'0 0.0
2019-Feb-12 04:00N 34°42' E 135°17'0 0.0
2019-Feb-12 03:30N 34°42' E 135°17'1 1.8
2019-Feb-12 03:00N 34°42' E 135°16'5 9.6
2019-Feb-12 02:30N 34°39' E 135°11'611.0
2019-Feb-12 01:59N 34°35' E 135°06'4 9.2
2019-Feb-12 01:30N 34°37' E 135°01'510.2
2019-Feb-12 01:00N 34°37' E 134°55'710.9
2019-Feb-12 00:23N 34°40' E 134°48'  
Track history (hours):
 
Tides and Currents Weather Stations Pressure Air Temp Water Temp Dewpoint Dewpoint Depression Visibility Wind Speed Wind Dir Waves Ship Positions

Kaisei Maru

Last reported at 2019-Feb-19 12:54 UTC. Time now 2019-Feb-21 15:46 UTC.
Position N 33°52' E 135°03'.

Length 52 m; draft 4 m.

Type: Tanker. MMSI: 431001837.

Date/timePositionNaut miles runAvg speedWind from/ knotsBaromVisibWave heightAir tempDewpointWater temp
2019-Feb-19 12:54N 33°52' E 135°03'4 9.4
2019-Feb-19 12:29N 33°56' E 135°01'5 9.3
2019-Feb-19 12:00N 34°01' E 135°01'5 9.5
2019-Feb-19 11:30N 34°05' E 135°01'5 9.6
2019-Feb-19 11:00N 34°10' E 135°02'5 9.7
2019-Feb-19 10:30N 34°15' E 135°03'5 9.4
2019-Feb-19 10:00N 34°19' E 135°05'510.2
2019-Feb-19 09:30N 34°22' E 135°10'610.0
2019-Feb-19 08:54N 34°25' E 135°16'2 5.7
2019-Feb-19 08:30N 34°26' E 135°19'0 0.0
2019-Feb-19 07:18N 34°26' E 135°19'0 0.0
2019-Feb-19 04:24N 34°26' E 135°19'1 0.2
2019-Feb-19 01:06N 34°26' E 135°19'0 0.0
2019-Feb-19 00:54N 34°26' E 135°19'0 0.0
2019-Feb-19 00:25N 34°26' E 135°19'0 0.0
2019-Feb-18 23:19N 34°26' E 135°19'1 3.1
2019-Feb-18 22:51N 34°27' E 135°19'410.9
2019-Feb-18 22:30N 34°31' E 135°17'610.9
2019-Feb-18 21:59N 34°36' E 135°16'5 9.8
2019-Feb-18 21:30N 34°41' E 135°14'1 2.8
2019-Feb-18 21:00N 34°41' E 135°12'0 0.0
2019-Feb-18 20:30N 34°41' E 135°12'0 0.0
2019-Feb-18 20:00N 34°41' E 135°12'0 0.0
2019-Feb-18 19:30N 34°41' E 135°12'0 0.0
2019-Feb-18 19:00N 34°41' E 135°12'0 0.0
2019-Feb-18 18:30N 34°41' E 135°12'0 0.0
2019-Feb-18 18:00N 34°41' E 135°12'0 0.0
2019-Feb-18 17:30N 34°41' E 135°12'0 0.0
2019-Feb-18 17:00N 34°41' E 135°12'0 0.0
2019-Feb-18 16:30N 34°41' E 135°12'0 0.0
2019-Feb-18 16:00N 34°41' E 135°12'0 0.0
2019-Feb-18 15:30N 34°41' E 135°12'0 0.0
2019-Feb-18 15:00N 34°41' E 135°12'0 0.0
2019-Feb-18 14:30N 34°41' E 135°12'0 0.0
2019-Feb-18 14:00N 34°41' E 135°12'0 0.0
2019-Feb-18 13:30N 34°41' E 135°12'0 0.0
2019-Feb-18 13:00N 34°41' E 135°12'0 0.0
2019-Feb-18 12:30N 34°41' E 135°12'0 0.0
2019-Feb-18 12:00N 34°41' E 135°12'0 0.0
2019-Feb-18 11:30N 34°41' E 135°12'0 0.0
2019-Feb-18 11:00N 34°41' E 135°12'0 0.0
2019-Feb-18 10:30N 34°41' E 135°12'0 0.0
2019-Feb-18 10:00N 34°41' E 135°12'0 0.0
2019-Feb-18 09:30N 34°41' E 135°12'0 0.0
2019-Feb-18 09:00N 34°41' E 135°12'0 0.0
2019-Feb-18 08:30N 34°41' E 135°12'0 0.0
2019-Feb-18 08:00N 34°41' E 135°12'0 0.0
2019-Feb-18 07:30N 34°41' E 135°12'0 0.0
2019-Feb-18 07:00N 34°41' E 135°12'0 0.0
2019-Feb-18 06:30N 34°41' E 135°12'0 0.0
2019-Feb-18 06:00N 34°41' E 135°12'0 0.0
2019-Feb-18 05:30N 34°41' E 135°12'0 0.0
2019-Feb-18 05:00N 34°41' E 135°12'0 0.0
2019-Feb-18 04:30N 34°41' E 135°12'0 0.0
2019-Feb-18 04:00N 34°41' E 135°12'0 0.0
2019-Feb-18 03:30N 34°41' E 135°12'0 0.0
2019-Feb-18 03:00N 34°41' E 135°12'0 0.0
2019-Feb-18 02:30N 34°41' E 135°12'0 0.0
2019-Feb-18 02:00N 34°41' E 135°12'0 0.0
2019-Feb-18 01:30N 34°41' E 135°12'0 0.0
2019-Feb-18 01:00N 34°41' E 135°12'0 0.0
2019-Feb-18 00:30N 34°41' E 135°12'0 0.0
2019-Feb-18 00:00N 34°41' E 135°12'0 0.0
2019-Feb-17 23:30N 34°41' E 135°12'0 0.0
2019-Feb-17 23:00N 34°41' E 135°12'0 0.0
2019-Feb-17 22:30N 34°41' E 135°12'0 0.0
2019-Feb-17 22:00N 34°41' E 135°12'0 0.0
2019-Feb-17 21:30N 34°41' E 135°12'0 0.0
2019-Feb-17 21:00N 34°41' E 135°12'0 0.0
2019-Feb-17 20:30N 34°41' E 135°12'0 0.0
2019-Feb-17 20:00N 34°41' E 135°12'0 0.0
2019-Feb-17 19:30N 34°41' E 135°12'0 0.0
2019-Feb-17 19:00N 34°41' E 135°12'0 0.0
2019-Feb-17 18:30N 34°41' E 135°12'0 0.0
2019-Feb-17 18:00N 34°41' E 135°12'0 0.0
2019-Feb-17 17:30N 34°41' E 135°12'0 0.0
2019-Feb-17 17:00N 34°41' E 135°12'0 0.0
2019-Feb-17 16:30N 34°41' E 135°12'0 0.0
2019-Feb-17 16:00N 34°41' E 135°12'0 0.0
2019-Feb-17 15:30N 34°41' E 135°12'0 0.0
2019-Feb-17 15:00N 34°41' E 135°12'0 0.0
2019-Feb-17 14:30N 34°41' E 135°12'0 0.0
2019-Feb-17 14:00N 34°41' E 135°12'0 0.0
2019-Feb-17 13:30N 34°41' E 135°12'0 0.0
2019-Feb-17 13:00N 34°41' E 135°12'0 0.0
2019-Feb-17 12:30N 34°41' E 135°12'0 0.0
2019-Feb-17 12:00N 34°41' E 135°12'0 0.0
2019-Feb-17 11:30N 34°41' E 135°12'0 0.0
2019-Feb-17 11:00N 34°41' E 135°12'0 0.0
2019-Feb-17 10:30N 34°41' E 135°12'0 0.0
2019-Feb-17 10:00N 34°41' E 135°12'0 0.0
2019-Feb-17 09:30N 34°41' E 135°12'0 0.0
2019-Feb-17 09:00N 34°41' E 135°12'0 0.0
2019-Feb-17 08:30N 34°41' E 135°12'0 0.0
2019-Feb-17 08:00N 34°41' E 135°12'0 0.0
2019-Feb-17 07:30N 34°41' E 135°12'0 0.0
2019-Feb-17 07:00N 34°41' E 135°12'0 0.0
2019-Feb-17 06:30N 34°41' E 135°12'0 0.0
2019-Feb-17 06:00N 34°41' E 135°12'0 0.0
2019-Feb-17 05:30N 34°41' E 135°12'0 0.0
2019-Feb-17 05:00N 34°41' E 135°12'0 0.0
2019-Feb-17 04:30N 34°41' E 135°12'0 0.0
2019-Feb-17 04:00N 34°41' E 135°12'0 0.0
2019-Feb-17 03:30N 34°41' E 135°12'0 0.0
2019-Feb-17 03:00N 34°41' E 135°12'0 0.0
2019-Feb-17 02:30N 34°41' E 135°12'0 0.0
2019-Feb-17 02:00N 34°41' E 135°12'0 0.0
2019-Feb-17 01:30N 34°41' E 135°12'0 0.0
2019-Feb-17 01:00N 34°41' E 135°12'0 0.0
2019-Feb-17 00:30N 34°41' E 135°12'0 0.0
2019-Feb-17 00:00N 34°41' E 135°12'0 0.0
2019-Feb-16 23:30N 34°41' E 135°12'0 0.0
2019-Feb-16 23:00N 34°41' E 135°12'0 0.0
2019-Feb-16 22:30N 34°41' E 135°12'0 0.0
2019-Feb-16 22:00N 34°41' E 135°12'0 0.0
2019-Feb-16 21:30N 34°41' E 135°12'0 0.0
2019-Feb-16 21:00N 34°41' E 135°12'0 0.0
2019-Feb-16 20:30N 34°41' E 135°12'0 0.0
2019-Feb-16 20:00N 34°41' E 135°12'0 0.0
2019-Feb-16 19:30N 34°41' E 135°12'0 0.0
2019-Feb-16 19:00N 34°41' E 135°12'0 0.0
2019-Feb-16 18:30N 34°41' E 135°12'0 0.0
2019-Feb-16 18:00N 34°41' E 135°12'0 0.0
2019-Feb-16 17:30N 34°41' E 135°12'0 0.0
2019-Feb-16 17:00N 34°41' E 135°12'0 0.0
2019-Feb-16 16:30N 34°41' E 135°12'0 0.0
2019-Feb-16 16:00N 34°41' E 135°12'0 0.0
2019-Feb-16 15:30N 34°41' E 135°12'0 0.0
2019-Feb-16 15:00N 34°41' E 135°12'0 0.0
2019-Feb-16 14:30N 34°41' E 135°12'0 0.0
2019-Feb-16 14:00N 34°41' E 135°12'0 0.0
2019-Feb-16 13:30N 34°41' E 135°12'0 0.0
2019-Feb-16 13:00N 34°41' E 135°12'0 0.0
2019-Feb-16 12:30N 34°41' E 135°12'0 0.0
2019-Feb-16 12:00N 34°41' E 135°12'0 0.0
2019-Feb-16 11:30N 34°41' E 135°12'0 0.0
2019-Feb-16 11:00N 34°41' E 135°12'0 0.0
2019-Feb-16 10:30N 34°41' E 135°12'0 0.0
2019-Feb-16 10:00N 34°41' E 135°12'0 0.0
2019-Feb-16 09:30N 34°41' E 135°12'0 0.0
2019-Feb-16 09:00N 34°41' E 135°12'0 0.0
2019-Feb-16 08:30N 34°41' E 135°12'0 0.0
2019-Feb-16 08:00N 34°41' E 135°12'0 0.0
2019-Feb-16 07:30N 34°41' E 135°12'0 0.0
2019-Feb-16 07:00N 34°41' E 135°12'0 0.0
2019-Feb-16 06:30N 34°41' E 135°12'0 0.0
2019-Feb-16 06:00N 34°41' E 135°12'0 0.0
2019-Feb-16 05:30N 34°41' E 135°12'0 0.0
2019-Feb-16 05:00N 34°41' E 135°12'0 0.0
2019-Feb-16 04:30N 34°41' E 135°12'0 0.0
2019-Feb-16 04:00N 34°41' E 135°12'0 0.0
2019-Feb-16 03:30N 34°41' E 135°12'0 0.0
2019-Feb-16 03:00N 34°41' E 135°12'0 0.0
2019-Feb-16 02:30N 34°41' E 135°12'0 0.0
2019-Feb-16 02:00N 34°41' E 135°12'0 0.0
2019-Feb-16 01:30N 34°41' E 135°12'0 0.0
2019-Feb-16 01:00N 34°41' E 135°12'0 0.0
2019-Feb-16 00:30N 34°41' E 135°12'0 0.0
2019-Feb-16 00:00N 34°41' E 135°12'0 0.0
2019-Feb-15 23:29N 34°41' E 135°12'0 0.0
2019-Feb-15 23:00N 34°41' E 135°12'0 0.0
2019-Feb-15 22:30N 34°41' E 135°12'0 0.0
2019-Feb-15 22:00N 34°41' E 135°12'0 0.0
2019-Feb-15 21:30N 34°41' E 135°12'0 0.0
2019-Feb-15 21:00N 34°41' E 135°12'0 0.0
2019-Feb-15 20:30N 34°41' E 135°12'0 0.0
2019-Feb-15 20:00N 34°41' E 135°12'0 0.0
2019-Feb-15 19:30N 34°41' E 135°12'0 0.0
2019-Feb-15 19:00N 34°41' E 135°12'0 0.0
2019-Feb-15 18:30N 34°41' E 135°12'0 0.0
2019-Feb-15 18:00N 34°41' E 135°12'0 0.0
2019-Feb-15 17:30N 34°41' E 135°12'0 0.0
2019-Feb-15 17:00N 34°41' E 135°12'0 0.0
2019-Feb-15 16:30N 34°41' E 135°12'0 0.0
2019-Feb-15 16:00N 34°41' E 135°12'0 0.0
2019-Feb-15 15:30N 34°41' E 135°12'0 0.0
2019-Feb-15 15:00N 34°41' E 135°12'0 0.0
2019-Feb-15 14:30N 34°41' E 135°12'0 0.0
2019-Feb-15 14:00N 34°41' E 135°12'0 0.0
2019-Feb-15 13:30N 34°41' E 135°12'0 0.0
2019-Feb-15 13:00N 34°41' E 135°12'0 0.0
2019-Feb-15 12:30N 34°41' E 135°12'0 0.0
2019-Feb-15 12:00N 34°41' E 135°12'0 0.0
2019-Feb-15 11:30N 34°41' E 135°12'0 0.0
2019-Feb-15 11:00N 34°41' E 135°12'0 0.8
2019-Feb-15 10:30N 34°41' E 135°13'0 0.3
2019-Feb-15 10:00N 34°41' E 135°13'0 0.1
2019-Feb-15 09:30N 34°41' E 135°13'0 0.0
2019-Feb-15 09:00N 34°41' E 135°13'0 0.0
2019-Feb-15 08:30N 34°41' E 135°13'0 0.1
2019-Feb-15 08:00N 34°41' E 135°13'1 1.6
2019-Feb-15 07:30N 34°41' E 135°14'4 7.7
2019-Feb-15 07:00N 34°42' E 135°18'0 0.0
2019-Feb-15 06:30N 34°42' E 135°18'0 0.0
2019-Feb-15 06:00N 34°42' E 135°18'0 0.0
2019-Feb-15 05:30N 34°42' E 135°18'0 0.0
2019-Feb-15 04:59N 34°42' E 135°18'0 0.0
2019-Feb-15 04:30N 34°42' E 135°18'0 0.0
2019-Feb-15 04:00N 34°42' E 135°18'0 0.0
2019-Feb-15 03:30N 34°42' E 135°18'0 0.0
2019-Feb-15 03:00N 34°42' E 135°18'1 1.9
2019-Feb-15 02:29N 34°41' E 135°19'0 0.0
2019-Feb-15 02:00N 34°41' E 135°19'0 0.0
2019-Feb-15 01:30N 34°41' E 135°19'0 0.0
2019-Feb-15 01:00N 34°41' E 135°19'0 0.0
2019-Feb-15 00:30N 34°41' E 135°19'0 0.0
2019-Feb-15 00:00N 34°41' E 135°19'0 0.0
2019-Feb-14 23:30N 34°41' E 135°19'0 0.0
2019-Feb-14 23:00N 34°41' E 135°19'0 0.0
2019-Feb-14 22:30N 34°41' E 135°19'0 0.0
2019-Feb-14 22:00N 34°41' E 135°19'0 0.0
2019-Feb-14 21:30N 34°41' E 135°19'0 0.0
2019-Feb-14 21:00N 34°41' E 135°19'0 0.0
2019-Feb-14 20:30N 34°41' E 135°19'0 0.0
2019-Feb-14 20:00N 34°41' E 135°19'0 0.0
2019-Feb-14 19:30N 34°41' E 135°19'0 0.0
2019-Feb-14 19:00N 34°41' E 135°19'0 0.0
2019-Feb-14 18:30N 34°41' E 135°19'0 0.0
2019-Feb-14 18:00N 34°41' E 135°19'0 0.0
2019-Feb-14 17:30N 34°41' E 135°19'0 0.1
2019-Feb-14 17:00N 34°41' E 135°19'0 0.0
2019-Feb-14 16:30N 34°41' E 135°19'0 0.0
2019-Feb-14 16:00N 34°41' E 135°19'0 0.0
2019-Feb-14 15:30N 34°41' E 135°19'0 0.0
2019-Feb-14 15:00N 34°41' E 135°19'2 3.6
2019-Feb-14 14:30N 34°40' E 135°18'0 0.3
2019-Feb-14 13:59N 34°40' E 135°18'0 0.0
2019-Feb-14 13:30N 34°40' E 135°18'0 0.0
2019-Feb-14 13:00N 34°40' E 135°18'0 0.1
2019-Feb-14 12:30N 34°40' E 135°18'0 0.0
2019-Feb-14 12:00N 34°40' E 135°18'1 2.1
2019-Feb-14 11:30N 34°39' E 135°18'0 0.9
2019-Feb-14 11:00N 34°38' E 135°17'0 0.5
2019-Feb-14 10:30N 34°39' E 135°17'4 7.6
2019-Feb-14 10:00N 34°41' E 135°13'1 1.9
2019-Feb-14 09:30N 34°41' E 135°12'0 0.0
2019-Feb-14 09:00N 34°41' E 135°12'0 0.0
2019-Feb-14 08:30N 34°41' E 135°12'0 0.0
2019-Feb-14 08:00N 34°41' E 135°12'0 0.0
2019-Feb-14 07:30N 34°41' E 135°12'0 0.0
2019-Feb-14 07:00N 34°41' E 135°12'0 0.0
2019-Feb-14 06:30N 34°41' E 135°12'0 0.0
2019-Feb-14 06:00N 34°41' E 135°12'0 0.0
2019-Feb-14 05:30N 34°41' E 135°12'0 0.0
2019-Feb-14 05:00N 34°41' E 135°12'0 0.0
2019-Feb-14 04:30N 34°41' E 135°12'0 0.0
2019-Feb-14 03:59N 34°41' E 135°12'0 0.0
2019-Feb-14 03:00N 34°41' E 135°12'0 0.0
2019-Feb-14 02:30N 34°41' E 135°12'0 0.0
2019-Feb-14 02:00N 34°41' E 135°12'0 0.0
2019-Feb-14 01:29N 34°41' E 135°12'0 0.0
2019-Feb-14 01:00N 34°41' E 135°12'0 0.0
2019-Feb-14 00:30N 34°41' E 135°12'0 0.0
2019-Feb-14 00:00N 34°41' E 135°12'0 0.0
2019-Feb-13 23:30N 34°41' E 135°12'0 0.0
2019-Feb-13 23:00N 34°41' E 135°12'0 0.0
2019-Feb-13 22:30N 34°41' E 135°12'0 0.0
2019-Feb-13 22:00N 34°41' E 135°12'0 0.0
2019-Feb-13 21:30N 34°41' E 135°12'0 0.0
2019-Feb-13 21:00N 34°41' E 135°12'0 0.0
2019-Feb-13 20:30N 34°41' E 135°12'0 0.0
2019-Feb-13 20:00N 34°41' E 135°12'0 0.0
2019-Feb-13 19:29N 34°41' E 135°12'0 0.0
2019-Feb-13 19:00N 34°41' E 135°12'0 0.0
2019-Feb-13 18:30N 34°41' E 135°12'0 0.0
2019-Feb-13 18:00N 34°41' E 135°12'0 0.0
2019-Feb-13 17:30N 34°41' E 135°12'0 0.0
2019-Feb-13 17:00N 34°41' E 135°12'0 0.0
2019-Feb-13 16:30N 34°41' E 135°12'0 0.0
2019-Feb-13 16:00N 34°41' E 135°12'0 0.0
2019-Feb-13 15:30N 34°41' E 135°12'0 0.0
2019-Feb-13 15:00N 34°41' E 135°12'0 0.0
2019-Feb-13 14:30N 34°41' E 135°12'0 0.0
2019-Feb-13 14:00N 34°41' E 135°12'0 0.0
2019-Feb-13 13:30N 34°41' E 135°12'0 0.0
2019-Feb-13 13:00N 34°41' E 135°12'0 0.0
2019-Feb-13 12:30N 34°41' E 135°12'0 0.0
2019-Feb-13 12:00N 34°41' E 135°12'0 0.0
2019-Feb-13 11:30N 34°41' E 135°12'0 0.0
2019-Feb-13 11:00N 34°41' E 135°12'0 0.0
2019-Feb-13 10:30N 34°41' E 135°12'0 0.0
2019-Feb-13 10:00N 34°41' E 135°12'0 0.0
2019-Feb-13 09:30N 34°41' E 135°12'0 0.0
2019-Feb-13 09:00N 34°41' E 135°12'0 0.0
2019-Feb-13 08:30N 34°41' E 135°12'0 0.0
2019-Feb-13 08:00N 34°41' E 135°12'0 0.0
2019-Feb-13 07:30N 34°41' E 135°12'0 0.0
2019-Feb-13 07:00N 34°41' E 135°12'0 0.0
2019-Feb-13 06:30N 34°41' E 135°12'0 0.0
2019-Feb-13 06:00N 34°41' E 135°12'0 0.0
2019-Feb-13 05:30N 34°41' E 135°12'0 0.0
2019-Feb-13 05:00N 34°41' E 135°12'0 0.0
2019-Feb-13 04:30N 34°41' E 135°12'0 0.0
2019-Feb-13 04:00N 34°41' E 135°12'0 0.0
2019-Feb-13 03:30N 34°41' E 135°12'0 0.0
2019-Feb-13 03:00N 34°41' E 135°12'0 0.0
2019-Feb-13 02:30N 34°41' E 135°12'0 0.0
2019-Feb-13 02:00N 34°41' E 135°12'0 0.0
2019-Feb-13 01:30N 34°41' E 135°12'0 0.0
2019-Feb-13 01:00N 34°41' E 135°12'0 0.0
2019-Feb-13 00:30N 34°41' E 135°12'0 0.0
2019-Feb-13 00:00N 34°41' E 135°12'0 0.0
2019-Feb-12 23:30N 34°41' E 135°12'0 0.0
2019-Feb-12 23:00N 34°41' E 135°12'0 0.0
2019-Feb-12 22:30N 34°41' E 135°12'0 0.0
2019-Feb-12 22:00N 34°41' E 135°12'2 3.5
2019-Feb-12 21:30N 34°41' E 135°14'4 7.2
2019-Feb-12 21:00N 34°41' E 135°19'0 0.1
2019-Feb-12 20:30N 34°41' E 135°19'0 0.0
2019-Feb-12 19:59N 34°41' E 135°19'0 0.0
2019-Feb-12 19:30N 34°41' E 135°19'0 0.0
2019-Feb-12 19:00N 34°41' E 135°19'0 0.0
2019-Feb-12 18:30N 34°41' E 135°19'0 0.0
2019-Feb-12 18:00N 34°41' E 135°19'0 0.0
2019-Feb-12 17:30N 34°41' E 135°19'0 0.0
2019-Feb-12 17:00N 34°41' E 135°19'0 0.0
2019-Feb-12 16:30N 34°41' E 135°19'0 0.0
2019-Feb-12 16:00N 34°41' E 135°19'0 0.0
2019-Feb-12 15:30N 34°41' E 135°19'0 0.0
2019-Feb-12 15:00N 34°41' E 135°19'0 0.0
2019-Feb-12 14:30N 34°41' E 135°19'0 0.0
2019-Feb-12 14:00N 34°41' E 135°19'2 4.4
2019-Feb-12 13:30N 34°39' E 135°18'0 0.0
2019-Feb-12 13:00N 34°39' E 135°18'0 0.8
2019-Feb-12 12:30N 34°39' E 135°18'1 1.6
2019-Feb-12 12:00N 34°38' E 135°17'0 0.6
2019-Feb-12 11:30N 34°39' E 135°17'4 7.3
2019-Feb-12 11:00N 34°41' E 135°13'1 1.9
2019-Feb-12 10:30N 34°41' E 135°12'0 0.0
2019-Feb-12 10:00N 34°41' E 135°12'0 0.0
2019-Feb-12 09:30N 34°41' E 135°12'0 0.0
2019-Feb-12 09:00N 34°41' E 135°12'0 0.0
2019-Feb-12 08:30N 34°41' E 135°12'0 0.0
2019-Feb-12 08:00N 34°41' E 135°12'3 5.4
2019-Feb-12 07:30N 34°42' E 135°15'1 2.3
2019-Feb-12 07:00N 34°42' E 135°17'0 0.0
2019-Feb-12 06:30N 34°42' E 135°17'0 0.0
2019-Feb-12 06:00N 34°42' E 135°17'0 0.0
2019-Feb-12 05:30N 34°42' E 135°17'0 0.0
2019-Feb-12 05:00N 34°42' E 135°17'0 0.0
2019-Feb-12 04:30N 34°42' E 135°17'0 0.0
2019-Feb-12 04:00N 34°42' E 135°17'0 0.0
2019-Feb-12 03:30N 34°42' E 135°17'1 1.8
2019-Feb-12 03:00N 34°42' E 135°16'5 9.6
2019-Feb-12 02:30N 34°39' E 135°11'611.0
2019-Feb-12 01:59N 34°35' E 135°06'4 9.2
2019-Feb-12 01:30N 34°37' E 135°01'510.2
2019-Feb-12 01:00N 34°37' E 134°55'710.9
2019-Feb-12 00:23N 34°40' E 134°48'  

Dump ship's entire track history